sensor_id;sensor_type;location;lat;lon;timestamp;noise_LAeq;noise_LA_min;noise_LA_max;noise_LA01;noise_LA95
78837;Laerm;72468;51.680;5.976;2024-02-15T00:03:40;32.06;31.2;33.83;;
78837;Laerm;72468;51.680;5.976;2024-02-15T00:07:41;32.04;31.26;32.7;;
78837;Laerm;72468;51.680;5.976;2024-02-15T00:11:40;32.05;31.27;32.65;;
78837;Laerm;72468;51.680;5.976;2024-02-15T00:15:40;32.03;31.4;32.61;;
78837;Laerm;72468;51.680;5.976;2024-02-15T00:19:40;32.05;31.41;32.71;;
78837;Laerm;72468;51.680;5.976;2024-02-15T00:23:41;32.05;31.41;32.61;;
78837;Laerm;72468;51.680;5.976;2024-02-15T00:27:40;32.04;31.37;32.69;;
78837;Laerm;72468;51.680;5.976;2024-02-15T00:31:40;32.02;31.29;32.72;;
78837;Laerm;72468;51.680;5.976;2024-02-15T00:35:40;32.07;31.38;35.71;;
78837;Laerm;72468;51.680;5.976;2024-02-15T00:39:41;32.02;31.32;32.64;;
78837;Laerm;72468;51.680;5.976;2024-02-15T00:43:40;32;31.27;32.53;;
78837;Laerm;72468;51.680;5.976;2024-02-15T00:47:40;31.99;31.1;32.6;;
78837;Laerm;72468;51.680;5.976;2024-02-15T00:51:40;32.02;31.3;34.26;;
78837;Laerm;72468;51.680;5.976;2024-02-15T00:55:40;32.01;31.25;32.89;;
78837;Laerm;72468;51.680;5.976;2024-02-15T00:59:40;32;31.35;32.76;;
78837;Laerm;72468;51.680;5.976;2024-02-15T01:03:40;32.01;31.33;32.64;;
78837;Laerm;72468;51.680;5.976;2024-02-15T01:07:40;32.01;31.27;32.66;;
78837;Laerm;72468;51.680;5.976;2024-02-15T01:11:40;32;31.25;32.72;;
78837;Laerm;72468;51.680;5.976;2024-02-15T01:15:40;32.01;31.28;32.66;;
78837;Laerm;72468;51.680;5.976;2024-02-15T01:19:40;32.02;31.16;32.68;;
78837;Laerm;72468;51.680;5.976;2024-02-15T01:23:40;32.02;31.18;33.37;;
78837;Laerm;72468;51.680;5.976;2024-02-15T01:27:40;32.02;31.3;32.57;;
78837;Laerm;72468;51.680;5.976;2024-02-15T01:31:40;32.02;31.37;32.7;;
78837;Laerm;72468;51.680;5.976;2024-02-15T01:35:40;32.03;31.32;32.7;;
78837;Laerm;72468;51.680;5.976;2024-02-15T01:39:40;32.03;31.44;32.74;;
78837;Laerm;72468;51.680;5.976;2024-02-15T01:43:43;32.04;31.36;32.68;;
78837;Laerm;72468;51.680;5.976;2024-02-15T01:47:40;32.04;31.3;32.77;;
78837;Laerm;72468;51.680;5.976;2024-02-15T01:51:40;32.11;31.08;35.15;;
78837;Laerm;72468;51.680;5.976;2024-02-15T01:55:40;32.03;31.36;32.64;;
78837;Laerm;72468;51.680;5.976;2024-02-15T01:59:40;32.02;31.37;32.63;;
78837;Laerm;72468;51.680;5.976;2024-02-15T02:03:40;32.02;31.34;32.73;;
78837;Laerm;72468;51.680;5.976;2024-02-15T02:07:40;32.03;31.28;32.7;;
78837;Laerm;72468;51.680;5.976;2024-02-15T02:11:40;32.05;31.3;34.08;;
78837;Laerm;72468;51.680;5.976;2024-02-15T02:15:41;32.03;31.27;32.61;;
78837;Laerm;72468;51.680;5.976;2024-02-15T02:19:41;32.03;31.33;32.66;;
78837;Laerm;72468;51.680;5.976;2024-02-15T02:23:40;32.05;31.29;32.69;;
78837;Laerm;72468;51.680;5.976;2024-02-15T02:27:40;32.06;31.32;33.09;;
78837;Laerm;72468;51.680;5.976;2024-02-15T02:31:40;32.05;31.25;33.01;;
78837;Laerm;72468;51.680;5.976;2024-02-15T02:35:40;32.05;31.4;32.67;;
78837;Laerm;72468;51.680;5.976;2024-02-15T02:39:40;32.05;31.4;32.73;;
78837;Laerm;72468;51.680;5.976;2024-02-15T02:43:40;32.05;31.32;32.75;;
78837;Laerm;72468;51.680;5.976;2024-02-15T02:47:41;32.08;31.4;32.73;;
78837;Laerm;72468;51.680;5.976;2024-02-15T02:51:40;32.06;31.27;32.87;;
78837;Laerm;72468;51.680;5.976;2024-02-15T02:55:40;32.06;31.29;32.75;;
78837;Laerm;72468;51.680;5.976;2024-02-15T02:59:40;32.08;31.31;33.29;;
78837;Laerm;72468;51.680;5.976;2024-02-15T03:03:40;32.1;31.26;35.19;;
78837;Laerm;72468;51.680;5.976;2024-02-15T03:07:40;32.06;31.45;32.68;;
78837;Laerm;72468;51.680;5.976;2024-02-15T03:11:40;32.06;31.42;32.79;;
78837;Laerm;72468;51.680;5.976;2024-02-15T03:15:40;32.11;31.28;35.32;;
78837;Laerm;72468;51.680;5.976;2024-02-15T03:19:40;32.06;31.16;32.85;;
78837;Laerm;72468;51.680;5.976;2024-02-15T03:23:40;32.06;30.86;33.18;;
78837;Laerm;72468;51.680;5.976;2024-02-15T03:27:40;32.06;31.22;32.74;;
78837;Laerm;72468;51.680;5.976;2024-02-15T03:31:40;32.05;31.21;32.8;;
78837;Laerm;72468;51.680;5.976;2024-02-15T03:35:40;32.04;31.36;33.05;;
78837;Laerm;72468;51.680;5.976;2024-02-15T03:39:40;32.08;31.21;35.86;;
78837;Laerm;72468;51.680;5.976;2024-02-15T03:43:40;32.09;31.22;36.45;;
78837;Laerm;72468;51.680;5.976;2024-02-15T03:47:40;32.06;30.31;33.01;;
78837;Laerm;72468;51.680;5.976;2024-02-15T03:51:40;32.18;30.1;38.31;;
78837;Laerm;72468;51.680;5.976;2024-02-15T03:55:40;32.12;29.98;37.18;;
78837;Laerm;72468;51.680;5.976;2024-02-15T03:59:40;32.04;31.24;32.88;;
78837;Laerm;72468;51.680;5.976;2024-02-15T04:03:40;32.22;29.41;39.09;;
78837;Laerm;72468;51.680;5.976;2024-02-15T04:07:40;32.05;31.23;32.91;;
78837;Laerm;72468;51.680;5.976;2024-02-15T04:11:40;32.24;31.13;39.94;;
78837;Laerm;72468;51.680;5.976;2024-02-15T04:15:40;32.03;31.03;33.73;;
78837;Laerm;72468;51.680;5.976;2024-02-15T04:19:40;32.05;31.04;33.51;;
78837;Laerm;72468;51.680;5.976;2024-02-15T04:23:40;32.04;31.19;33.14;;
78837;Laerm;72468;51.680;5.976;2024-02-15T04:27:40;32.13;30.99;35.32;;
78837;Laerm;72468;51.680;5.976;2024-02-15T04:31:40;32.04;30.49;34.06;;
78837;Laerm;72468;51.680;5.976;2024-02-15T04:35:40;32.13;31.13;35.45;;
78837;Laerm;72468;51.680;5.976;2024-02-15T04:39:40;32.35;27.99;40.24;;
78837;Laerm;72468;51.680;5.976;2024-02-15T04:43:40;32.09;30.29;34.57;;
78837;Laerm;72468;51.680;5.976;2024-02-15T04:47:40;32.22;31.2;40.58;;
78837;Laerm;72468;51.680;5.976;2024-02-15T04:51:40;32.45;30.79;41.97;;
78837;Laerm;72468;51.680;5.976;2024-02-15T04:55:40;32.28;30.01;39.59;;
78837;Laerm;72468;51.680;5.976;2024-02-15T04:59:40;32.11;30.78;34.22;;
78837;Laerm;72468;51.680;5.976;2024-02-15T05:03:40;32.13;30.38;37.39;;
78837;Laerm;72468;51.680;5.976;2024-02-15T05:07:40;32.41;30.59;39.94;;
78837;Laerm;72468;51.680;5.976;2024-02-15T05:11:40;32.2;29.66;37.17;;
78837;Laerm;72468;51.680;5.976;2024-02-15T05:15:40;32.62;30.31;44.64;;
78837;Laerm;72468;51.680;5.976;2024-02-15T05:19:40;32.48;28.85;38.19;;
78837;Laerm;72468;51.680;5.976;2024-02-15T05:23:40;32.11;29.82;35.77;;
78837;Laerm;72468;51.680;5.976;2024-02-15T05:27:40;32.16;30.12;38.07;;
78837;Laerm;72468;51.680;5.976;2024-02-15T05:31:40;32.15;30.3;35.91;;
78837;Laerm;72468;51.680;5.976;2024-02-15T05:35:40;32.47;29.33;40.47;;
78837;Laerm;72468;51.680;5.976;2024-02-15T05:39:40;32.59;30.33;40.6;;
78837;Laerm;72468;51.680;5.976;2024-02-15T05:43:40;32.5;29.8;40.1;;
78837;Laerm;72468;51.680;5.976;2024-02-15T05:47:40;32.82;30.29;40.12;;
78837;Laerm;72468;51.680;5.976;2024-02-15T05:51:40;32.49;30.51;39.45;;
78837;Laerm;72468;51.680;5.976;2024-02-15T05:55:40;32.76;29.37;40.67;;
78837;Laerm;72468;51.680;5.976;2024-02-15T05:59:40;33.81;29.71;46.07;;
78837;Laerm;72468;51.680;5.976;2024-02-15T06:03:40;32.72;30.24;41.62;;
78837;Laerm;72468;51.680;5.976;2024-02-15T06:07:40;33.33;30.12;49.95;;
78837;Laerm;72468;51.680;5.976;2024-02-15T06:11:40;32.83;29.39;40.32;;
78837;Laerm;72468;51.680;5.976;2024-02-15T06:15:40;32.74;29.91;41.52;;
78837;Laerm;72468;51.680;5.976;2024-02-15T06:19:40;32.39;30.44;40.09;;
78837;Laerm;72468;51.680;5.976;2024-02-15T06:23:40;32.71;29.72;39.82;;
78837;Laerm;72468;51.680;5.976;2024-02-15T06:27:40;33.44;29.59;47.3;;
78837;Laerm;72468;51.680;5.976;2024-02-15T06:31:40;33.4;29.94;43.86;;
78837;Laerm;72468;51.680;5.976;2024-02-15T06:35:40;33.79;29.73;45.46;;
78837;Laerm;72468;51.680;5.976;2024-02-15T06:39:40;32.89;30.44;45.79;;
78837;Laerm;72468;51.680;5.976;2024-02-15T06:43:40;33.78;30.24;45.25;;
78837;Laerm;72468;51.680;5.976;2024-02-15T06:47:41;32.43;30.16;42.12;;
78837;Laerm;72468;51.680;5.976;2024-02-15T06:51:41;32.96;29.9;44.08;;
78837;Laerm;72468;51.680;5.976;2024-02-15T06:55:40;32.95;29.94;40.59;;
78837;Laerm;72468;51.680;5.976;2024-02-15T06:59:40;33.55;30.11;41.4;;
78837;Laerm;72468;51.680;5.976;2024-02-15T07:03:40;33.05;30.37;42.34;;
78837;Laerm;72468;51.680;5.976;2024-02-15T07:07:40;32.57;30.27;37.96;;
78837;Laerm;72468;51.680;5.976;2024-02-15T07:11:40;32.79;29.55;41.27;;
78837;Laerm;72468;51.680;5.976;2024-02-15T07:15:40;33.41;30.46;44.49;;
78837;Laerm;72468;51.680;5.976;2024-02-15T07:19:41;33.27;30.19;43.77;;
78837;Laerm;72468;51.680;5.976;2024-02-15T07:23:40;35.05;29.54;53.49;;
78837;Laerm;72468;51.680;5.976;2024-02-15T07:27:40;33.09;29.52;45.15;;
78837;Laerm;72468;51.680;5.976;2024-02-15T07:31:40;33.26;30.9;45.31;;
78837;Laerm;72468;51.680;5.976;2024-02-15T07:35:41;33.04;29.9;44.97;;
78837;Laerm;72468;51.680;5.976;2024-02-15T07:39:40;33.5;29.18;45.15;;
78837;Laerm;72468;51.680;5.976;2024-02-15T07:43:40;34.19;29.55;45.39;;
78837;Laerm;72468;51.680;5.976;2024-02-15T07:47:40;33.15;29.41;44.62;;
78837;Laerm;72468;51.680;5.976;2024-02-15T07:51:40;33.19;30.24;43.98;;
78837;Laerm;72468;51.680;5.976;2024-02-15T07:55:41;34.27;29.73;46.44;;
78837;Laerm;72468;51.680;5.976;2024-02-15T07:59:40;32.99;30.55;41.48;;
78837;Laerm;72468;51.680;5.976;2024-02-15T08:03:40;33.13;30.31;42.38;;
78837;Laerm;72468;51.680;5.976;2024-02-15T08:07:41;33.64;30.06;46.16;;
78837;Laerm;72468;51.680;5.976;2024-02-15T08:11:40;33.31;30.35;48.2;;
78837;Laerm;72468;51.680;5.976;2024-02-15T08:15:40;32.92;30.82;42.4;;
78837;Laerm;72468;51.680;5.976;2024-02-15T08:19:40;33.07;30.45;45.97;;
78837;Laerm;72468;51.680;5.976;2024-02-15T08:23:40;32.79;30.57;39.08;;
78837;Laerm;72468;51.680;5.976;2024-02-15T08:27:41;33.12;30.94;44.15;;
78837;Laerm;72468;51.680;5.976;2024-02-15T08:31:40;33.08;29.37;47.15;;
78837;Laerm;72468;51.680;5.976;2024-02-15T08:35:40;33.61;30.02;45.55;;
78837;Laerm;72468;51.680;5.976;2024-02-15T08:39:40;33.46;30.18;44.3;;
78837;Laerm;72468;51.680;5.976;2024-02-15T08:43:40;33.64;30.16;43.06;;
78837;Laerm;72468;51.680;5.976;2024-02-15T08:47:41;33.49;29.58;44.15;;
78837;Laerm;72468;51.680;5.976;2024-02-15T08:51:40;33.08;30.2;40.32;;
78837;Laerm;72468;51.680;5.976;2024-02-15T08:55:40;33.02;30.07;38.51;;
78837;Laerm;72468;51.680;5.976;2024-02-15T08:59:40;33.5;30.69;44.24;;
78837;Laerm;72468;51.680;5.976;2024-02-15T09:03:40;32.97;30.7;43.15;;
78837;Laerm;72468;51.680;5.976;2024-02-15T09:07:40;33.58;30.11;44.25;;
78837;Laerm;72468;51.680;5.976;2024-02-15T09:11:40;33.77;30.79;45.48;;
78837;Laerm;72468;51.680;5.976;2024-02-15T09:15:40;33.48;30.65;43.5;;
78837;Laerm;72468;51.680;5.976;2024-02-15T09:19:40;33.77;30.17;43.15;;
78837;Laerm;72468;51.680;5.976;2024-02-15T09:23:40;34.67;29.75;49.11;;
78837;Laerm;72468;51.680;5.976;2024-02-15T09:27:40;33.8;30.25;44.58;;
78837;Laerm;72468;51.680;5.976;2024-02-15T09:31:41;35.72;30.43;56.61;;
78837;Laerm;72468;51.680;5.976;2024-02-15T09:35:40;39.39;29.96;62.47;;
78837;Laerm;72468;51.680;5.976;2024-02-15T09:39:40;33.11;30.67;42.22;;
78837;Laerm;72468;51.680;5.976;2024-02-15T09:43:40;33.25;30.16;42.49;;
78837;Laerm;72468;51.680;5.976;2024-02-15T09:47:40;32.77;30.3;42.16;;
78837;Laerm;72468;51.680;5.976;2024-02-15T09:51:40;33.06;28.87;40.38;;
78837;Laerm;72468;51.680;5.976;2024-02-15T09:55:40;32.69;30.3;40;;
78837;Laerm;72468;51.680;5.976;2024-02-15T09:59:40;33.11;29.53;41.33;;
78837;Laerm;72468;51.680;5.976;2024-02-15T10:03:40;33.17;30.13;43.82;;
78837;Laerm;72468;51.680;5.976;2024-02-15T10:07:41;33.67;30.61;46.09;;
78837;Laerm;72468;51.680;5.976;2024-02-15T10:11:44;33.6;30.65;43.35;;
78837;Laerm;72468;51.680;5.976;2024-02-15T10:15:40;33.39;29.85;46.54;;
78837;Laerm;72468;51.680;5.976;2024-02-15T10:19:40;33.02;30.03;41.89;;
78837;Laerm;72468;51.680;5.976;2024-02-15T10:23:40;32.79;30.43;39.43;;
78837;Laerm;72468;51.680;5.976;2024-02-15T10:27:40;32.82;30.34;41.92;;
78837;Laerm;72468;51.680;5.976;2024-02-15T10:31:51;33.16;30.34;40.61;;
78837;Laerm;72468;51.680;5.976;2024-02-15T10:35:40;34.23;30.25;43.91;;
78837;Laerm;72468;51.680;5.976;2024-02-15T10:39:40;33.43;30.61;46.01;;
78837;Laerm;72468;51.680;5.976;2024-02-15T10:43:40;33.41;30.65;44.28;;
78837;Laerm;72468;51.680;5.976;2024-02-15T10:47:40;32.61;30.78;39.58;;
78837;Laerm;72468;51.680;5.976;2024-02-15T10:51:44;33.09;30.3;42.4;;
78837;Laerm;72468;51.680;5.976;2024-02-15T10:55:43;32.75;30.61;45.76;;
78837;Laerm;72468;51.680;5.976;2024-02-15T10:59:43;32.98;30.57;40.6;;
78837;Laerm;72468;51.680;5.976;2024-02-15T11:03:42;33.39;29.24;46.05;;
78837;Laerm;72468;51.680;5.976;2024-02-15T11:07:40;33.1;31.07;43.68;;
78837;Laerm;72468;51.680;5.976;2024-02-15T11:11:40;33.26;29.24;41.41;;
78837;Laerm;72468;51.680;5.976;2024-02-15T11:15:41;34.12;30.2;48.93;;
78837;Laerm;72468;51.680;5.976;2024-02-15T11:19:41;33;29.63;41.67;;
78837;Laerm;72468;51.680;5.976;2024-02-15T11:23:40;33.26;30.29;42.72;;
78837;Laerm;72468;51.680;5.976;2024-02-15T11:27:41;34.04;30.33;52.95;;
78837;Laerm;72468;51.680;5.976;2024-02-15T11:31:55;33.41;29.84;39.03;;
78837;Laerm;72468;51.680;5.976;2024-02-15T11:35:43;33.89;29.5;46.76;;
78837;Laerm;72468;51.680;5.976;2024-02-15T11:39:40;33.91;29.91;45.42;;
78837;Laerm;72468;51.680;5.976;2024-02-15T11:43:48;33.23;30.72;42.03;;
78837;Laerm;72468;51.680;5.976;2024-02-15T11:47:40;33.44;30.5;46.15;;
78837;Laerm;72468;51.680;5.976;2024-02-15T11:51:40;33.44;30.33;47.2;;
78837;Laerm;72468;51.680;5.976;2024-02-15T11:55:40;33.94;30.74;46.21;;
78837;Laerm;72468;51.680;5.976;2024-02-15T11:59:41;33.31;30.35;41.48;;
78837;Laerm;72468;51.680;5.976;2024-02-15T12:03:40;40.24;30.14;69.04;;
78837;Laerm;72468;51.680;5.976;2024-02-15T12:07:40;46.64;30.75;69.17;;
78837;Laerm;72468;51.680;5.976;2024-02-15T12:11:40;43.24;30.09;64.63;;
78837;Laerm;72468;51.680;5.976;2024-02-15T12:15:40;41.15;30.5;68.26;;
78837;Laerm;72468;51.680;5.976;2024-02-15T12:19:40;38.36;28.73;66.97;;
78837;Laerm;72468;51.680;5.976;2024-02-15T12:23:40;33.27;30.37;43.75;;
78837;Laerm;72468;51.680;5.976;2024-02-15T12:27:40;37.39;31.1;60.1;;
78837;Laerm;72468;51.680;5.976;2024-02-15T12:31:40;33.18;29.33;42;;
78837;Laerm;72468;51.680;5.976;2024-02-15T12:35:40;39.74;29.88;62.03;;
78837;Laerm;72468;51.680;5.976;2024-02-15T12:39:40;33.62;30.13;47.04;;
78837;Laerm;72468;51.680;5.976;2024-02-15T12:43:40;33.54;30.63;41.43;;
78837;Laerm;72468;51.680;5.976;2024-02-15T12:47:40;33.64;30.82;48.69;;
78837;Laerm;72468;51.680;5.976;2024-02-15T12:51:40;33.64;29.57;44.07;;
78837;Laerm;72468;51.680;5.976;2024-02-15T12:55:40;33.29;30.41;41.32;;
78837;Laerm;72468;51.680;5.976;2024-02-15T12:59:41;36.19;30.27;53.8;;
78837;Laerm;72468;51.680;5.976;2024-02-15T13:03:41;33.67;29.66;49.19;;
78837;Laerm;72468;51.680;5.976;2024-02-15T13:07:40;33.61;30.61;39.7;;
78837;Laerm;72468;51.680;5.976;2024-02-15T13:11:40;33.91;30.69;45.85;;
78837;Laerm;72468;51.680;5.976;2024-02-15T13:15:40;33.09;30.31;40.22;;
78837;Laerm;72468;51.680;5.976;2024-02-15T13:19:44;34.43;29.96;46.63;;
78837;Laerm;72468;51.680;5.976;2024-02-15T13:23:40;33.2;30.99;40.44;;
78837;Laerm;72468;51.680;5.976;2024-02-15T13:27:40;33.03;31.2;37.37;;
78837;Laerm;72468;51.680;5.976;2024-02-15T13:31:40;32.84;30.52;43.84;;
78837;Laerm;72468;51.680;5.976;2024-02-15T13:35:40;33.97;30.35;45.48;;
78837;Laerm;72468;51.680;5.976;2024-02-15T13:39:40;33.49;27.88;41.59;;
78837;Laerm;72468;51.680;5.976;2024-02-15T13:43:40;33.28;29.73;43.73;;
78837;Laerm;72468;51.680;5.976;2024-02-15T13:47:41;33.68;29.97;43.05;;
78837;Laerm;72468;51.680;5.976;2024-02-15T13:51:40;33.28;30.09;43.47;;
78837;Laerm;72468;51.680;5.976;2024-02-15T13:55:40;33.26;30.35;43.3;;
78837;Laerm;72468;51.680;5.976;2024-02-15T13:59:40;33.3;29.76;43.73;;
78837;Laerm;72468;51.680;5.976;2024-02-15T14:03:40;33.37;30.37;42.98;;
78837;Laerm;72468;51.680;5.976;2024-02-15T14:07:40;32.82;30.8;40.29;;
78837;Laerm;72468;51.680;5.976;2024-02-15T14:11:40;34.01;29.81;46.78;;
78837;Laerm;72468;51.680;5.976;2024-02-15T14:15:40;32.77;30.34;39.94;;
78837;Laerm;72468;51.680;5.976;2024-02-15T14:19:40;33.45;30.42;43.87;;
78837;Laerm;72468;51.680;5.976;2024-02-15T14:23:40;33.19;30.41;46.02;;
78837;Laerm;72468;51.680;5.976;2024-02-15T14:27:40;33.11;29.56;43.54;;
78837;Laerm;72468;51.680;5.976;2024-02-15T14:31:40;33.59;29.73;44.98;;
78837;Laerm;72468;51.680;5.976;2024-02-15T14:35:40;32.86;30.99;38.59;;
78837;Laerm;72468;51.680;5.976;2024-02-15T14:39:40;33.28;29.49;43.87;;
78837;Laerm;72468;51.680;5.976;2024-02-15T14:43:40;33.23;30.87;44.62;;
78837;Laerm;72468;51.680;5.976;2024-02-15T14:47:40;33.39;30.63;44.03;;
78837;Laerm;72468;51.680;5.976;2024-02-15T14:51:40;32.8;30.93;41.7;;
78837;Laerm;72468;51.680;5.976;2024-02-15T14:55:40;33.66;30.27;44.41;;
78837;Laerm;72468;51.680;5.976;2024-02-15T14:59:41;33.73;29.37;44.51;;
78837;Laerm;72468;51.680;5.976;2024-02-15T15:03:40;33.38;29.68;43.88;;
78837;Laerm;72468;51.680;5.976;2024-02-15T15:07:40;33.18;30.4;42.56;;
78837;Laerm;72468;51.680;5.976;2024-02-15T15:11:40;33.86;30.36;46.91;;
78837;Laerm;72468;51.680;5.976;2024-02-15T15:15:41;33.28;30.15;43.68;;
78837;Laerm;72468;51.680;5.976;2024-02-15T15:19:41;35.62;29.88;53.57;;
78837;Laerm;72468;51.680;5.976;2024-02-15T15:23:42;33.64;30.89;43.78;;
78837;Laerm;72468;51.680;5.976;2024-02-15T15:27:40;40.38;30.34;66.22;;
78837;Laerm;72468;51.680;5.976;2024-02-15T15:31:40;33.76;30.45;47.31;;
78837;Laerm;72468;51.680;5.976;2024-02-15T15:35:40;32.72;29.59;39.25;;
78837;Laerm;72468;51.680;5.976;2024-02-15T15:39:40;34.14;30.1;47.19;;
78837;Laerm;72468;51.680;5.976;2024-02-15T15:43:41;33.05;30.06;43.85;;
78837;Laerm;72468;51.680;5.976;2024-02-15T15:47:41;32.64;29.2;41.85;;
78837;Laerm;72468;51.680;5.976;2024-02-15T15:51:41;32.54;30.32;37;;
78837;Laerm;72468;51.680;5.976;2024-02-15T15:55:43;33.24;29.26;44.8;;
78837;Laerm;72468;51.680;5.976;2024-02-15T15:59:40;33.42;30.23;48.57;;
78837;Laerm;72468;51.680;5.976;2024-02-15T16:03:41;32.71;30.38;41.26;;
78837;Laerm;72468;51.680;5.976;2024-02-15T16:07:41;33.34;30.29;42.55;;
78837;Laerm;72468;51.680;5.976;2024-02-15T16:11:40;33.09;30.64;44.06;;
78837;Laerm;72468;51.680;5.976;2024-02-15T16:15:40;33.04;29.46;45.85;;
78837;Laerm;72468;51.680;5.976;2024-02-15T16:19:40;32.91;28.94;42.52;;
78837;Laerm;72468;51.680;5.976;2024-02-15T16:23:41;33.42;30.19;44.51;;
78837;Laerm;72468;51.680;5.976;2024-02-15T16:31:40;33.1;30.53;47.61;;
78837;Laerm;72468;51.680;5.976;2024-02-15T16:35:40;33.9;29.78;47.24;;
78837;Laerm;72468;51.680;5.976;2024-02-15T16:39:40;33.06;30.44;45.65;;
78837;Laerm;72468;51.680;5.976;2024-02-15T16:43:41;33.9;29.34;46.93;;
78837;Laerm;72468;51.680;5.976;2024-02-15T16:47:40;33.37;30.33;43.25;;
78837;Laerm;72468;51.680;5.976;2024-02-15T16:51:40;33.51;30.09;48.29;;
78837;Laerm;72468;51.680;5.976;2024-02-15T16:55:40;32.84;30.64;46.54;;
78837;Laerm;72468;51.680;5.976;2024-02-15T16:59:40;32.49;30.26;38.85;;
78837;Laerm;72468;51.680;5.976;2024-02-15T17:03:40;32.85;31.08;49.76;;
78837;Laerm;72468;51.680;5.976;2024-02-15T17:07:40;32.6;30.9;50;;
78837;Laerm;72468;51.680;5.976;2024-02-15T17:11:40;32.82;30.11;48.59;;
78837;Laerm;72468;51.680;5.976;2024-02-15T17:15:40;32.89;30.67;47.64;;
78837;Laerm;72468;51.680;5.976;2024-02-15T17:19:40;32.61;30.53;41.8;;
78837;Laerm;72468;51.680;5.976;2024-02-15T17:23:41;32.79;30.8;51.19;;
78837;Laerm;72468;51.680;5.976;2024-02-15T17:27:40;32.25;31;36.33;;
78837;Laerm;72468;51.680;5.976;2024-02-15T17:31:41;32.2;30.04;37.01;;
78837;Laerm;72468;51.680;5.976;2024-02-15T17:35:40;32.18;31.11;34.95;;
78837;Laerm;72468;51.680;5.976;2024-02-15T17:39:41;32.38;29.48;37.61;;
78837;Laerm;72468;51.680;5.976;2024-02-15T17:43:40;32.25;31.1;34.9;;
78837;Laerm;72468;51.680;5.976;2024-02-15T17:47:41;32.27;30.34;38.05;;
78837;Laerm;72468;51.680;5.976;2024-02-15T17:51:40;32.39;30.67;44.86;;
78837;Laerm;72468;51.680;5.976;2024-02-15T17:55:40;32.3;30.58;39.04;;
78837;Laerm;72468;51.680;5.976;2024-02-15T17:59:40;32.63;29.84;47.7;;
78837;Laerm;72468;51.680;5.976;2024-02-15T18:03:40;32.35;30.84;42;;
78837;Laerm;72468;51.680;5.976;2024-02-15T18:07:40;32.51;30.46;45.24;;
78837;Laerm;72468;51.680;5.976;2024-02-15T18:11:40;32.35;30.62;36.04;;
78837;Laerm;72468;51.680;5.976;2024-02-15T18:15:40;32.33;31.19;42.45;;
78837;Laerm;72468;51.680;5.976;2024-02-15T18:19:40;32.26;29.5;36.12;;
78837;Laerm;72468;51.680;5.976;2024-02-15T18:23:40;32.27;30.79;36.8;;
78837;Laerm;72468;51.680;5.976;2024-02-15T18:27:40;32.19;30.84;34.01;;
78837;Laerm;72468;51.680;5.976;2024-02-15T18:31:40;33.03;30.22;55.1;;
78837;Laerm;72468;51.680;5.976;2024-02-15T18:35:42;44.93;30.3;67.4;;
78837;Laerm;72468;51.680;5.976;2024-02-15T18:39:40;43.43;30.05;67.56;;
78837;Laerm;72468;51.680;5.976;2024-02-15T18:43:40;32.27;30.46;40.36;;
78837;Laerm;72468;51.680;5.976;2024-02-15T18:47:40;32.85;30.68;50.8;;
78837;Laerm;72468;51.680;5.976;2024-02-15T18:51:41;32.19;31.21;35.24;;
78837;Laerm;72468;51.680;5.976;2024-02-15T18:55:40;32.22;29.99;35.75;;
78837;Laerm;72468;51.680;5.976;2024-02-15T18:59:40;32.75;30.7;50.11;;
78837;Laerm;72468;51.680;5.976;2024-02-15T19:03:40;32.64;30.4;50.16;;
78837;Laerm;72468;51.680;5.976;2024-02-15T19:07:40;35.08;31.1;59.27;;
78837;Laerm;72468;51.680;5.976;2024-02-15T19:11:40;32.11;31.1;33.89;;
78837;Laerm;72468;51.680;5.976;2024-02-15T19:15:40;32.19;30.61;37.91;;
78837;Laerm;72468;51.680;5.976;2024-02-15T19:19:40;33.92;31.01;52.66;;
78837;Laerm;72468;51.680;5.976;2024-02-15T19:23:40;32.13;31.3;36.7;;
78837;Laerm;72468;51.680;5.976;2024-02-15T19:27:43;32.12;31.22;33.72;;
78837;Laerm;72468;51.680;5.976;2024-02-15T19:31:40;32.11;31.11;34.61;;
78837;Laerm;72468;51.680;5.976;2024-02-15T19:35:40;32.24;29.76;40.26;;
78837;Laerm;72468;51.680;5.976;2024-02-15T19:39:40;32.21;30.42;36.11;;
78837;Laerm;72468;51.680;5.976;2024-02-15T19:43:40;32.13;31.08;34.13;;
78837;Laerm;72468;51.680;5.976;2024-02-15T19:47:40;32.2;31.05;35.89;;
78837;Laerm;72468;51.680;5.976;2024-02-15T19:51:40;32.15;31.25;35.34;;
78837;Laerm;72468;51.680;5.976;2024-02-15T19:55:40;32.19;31.35;35;;
78837;Laerm;72468;51.680;5.976;2024-02-15T19:59:40;32.18;30.76;36.39;;
78837;Laerm;72468;51.680;5.976;2024-02-15T20:03:40;32.18;30.55;34.75;;
78837;Laerm;72468;51.680;5.976;2024-02-15T20:07:40;32.15;31.02;33.51;;
78837;Laerm;72468;51.680;5.976;2024-02-15T20:11:40;32.23;31.15;34.93;;
78837;Laerm;72468;51.680;5.976;2024-02-15T20:15:40;32.28;30.95;38.81;;
78837;Laerm;72468;51.680;5.976;2024-02-15T20:19:40;32.17;30.93;33.01;;
78837;Laerm;72468;51.680;5.976;2024-02-15T20:23:40;32.18;30.35;39.99;;
78837;Laerm;72468;51.680;5.976;2024-02-15T20:27:40;32.28;31.22;43.07;;
78837;Laerm;72468;51.680;5.976;2024-02-15T20:31:42;32.24;30.83;36.52;;
78837;Laerm;72468;51.680;5.976;2024-02-15T20:35:40;32.11;31.01;34.79;;
78837;Laerm;72468;51.680;5.976;2024-02-15T20:39:40;32.5;30.6;45.04;;
78837;Laerm;72468;51.680;5.976;2024-02-15T20:43:40;32.51;30.3;44.12;;
78837;Laerm;72468;51.680;5.976;2024-02-15T20:47:40;32.15;30.74;36.41;;
78837;Laerm;72468;51.680;5.976;2024-02-15T20:51:40;32.15;31.14;34.69;;
78837;Laerm;72468;51.680;5.976;2024-02-15T20:55:40;32.21;31.23;35;;
78837;Laerm;72468;51.680;5.976;2024-02-15T20:59:40;32.2;30.33;34.4;;
78837;Laerm;72468;51.680;5.976;2024-02-15T21:03:40;32.29;30.94;38.56;;
78837;Laerm;72468;51.680;5.976;2024-02-15T21:07:40;32.36;30.54;36.79;;
78837;Laerm;72468;51.680;5.976;2024-02-15T21:11:40;32.2;31;35.5;;
78837;Laerm;72468;51.680;5.976;2024-02-15T21:15:40;32.15;31.18;34.56;;
78837;Laerm;72468;51.680;5.976;2024-02-15T21:19:40;32.23;29.01;37.3;;
78837;Laerm;72468;51.680;5.976;2024-02-15T21:23:40;32.13;30.74;33.88;;
78837;Laerm;72468;51.680;5.976;2024-02-15T21:27:40;32.18;31.02;34.46;;
78837;Laerm;72468;51.680;5.976;2024-02-15T21:31:40;32.1;31.31;32.75;;
78837;Laerm;72468;51.680;5.976;2024-02-15T21:35:40;32.27;31.06;36.72;;
78837;Laerm;72468;51.680;5.976;2024-02-15T21:39:40;32.16;31.37;33.61;;
78837;Laerm;72468;51.680;5.976;2024-02-15T21:43:40;32.13;30.92;34.1;;
78837;Laerm;72468;51.680;5.976;2024-02-15T21:47:40;32.15;31.3;33.45;;
78837;Laerm;72468;51.680;5.976;2024-02-15T21:51:40;32.15;30.61;33.46;;
78837;Laerm;72468;51.680;5.976;2024-02-15T21:55:43;32.15;31.51;32.83;;
78837;Laerm;72468;51.680;5.976;2024-02-15T21:59:40;32.2;31.31;36.05;;
78837;Laerm;72468;51.680;5.976;2024-02-15T22:03:40;32.17;31.37;33.48;;
78837;Laerm;72468;51.680;5.976;2024-02-15T22:07:40;32.18;31.22;33.97;;
78837;Laerm;72468;51.680;5.976;2024-02-15T22:11:40;32.29;31.4;39.62;;
78837;Laerm;72468;51.680;5.976;2024-02-15T22:15:40;32.12;31.2;34.26;;
78837;Laerm;72468;51.680;5.976;2024-02-15T22:19:40;32.09;31;32.91;;
78837;Laerm;72468;51.680;5.976;2024-02-15T22:23:40;32.11;31.29;32.9;;
78837;Laerm;72468;51.680;5.976;2024-02-15T22:27:40;32.11;30.94;33.16;;
78837;Laerm;72468;51.680;5.976;2024-02-15T22:31:40;32.14;31.28;35.56;;
78837;Laerm;72468;51.680;5.976;2024-02-15T22:35:40;32.07;31.45;32.64;;